Time;durP1;ratioP1;P1;durP2;ratioP2;P2;SDS_P1;SDS_P2;PMS_P1;PMS_P2;Temp;Humidity;BMP_temperature;BMP_pressure;BME280_temperature;BME280_humidity;BME280_pressure;Samples;Min_cycle;Max_cycle;Signal;HPM_P1;HPM_P2
2021/12/29 00:00:53;;;;;;;23.10;4.97;;;6.20;99.90;;;;;;5011237;28;20394;-83
2021/12/29 00:03:19;;;;;;;14.20;4.43;;;6.20;99.90;;;;;;4962415;28;20117;-84
2021/12/29 00:05:44;;;;;;;20.83;4.28;;;6.20;99.90;;;;;;4962725;28;20030;-83
2021/12/29 00:08:10;;;;;;;16.88;5.47;;;6.20;99.90;;;;;;4962397;28;20088;-84
2021/12/29 00:10:36;;;;;;;22.98;4.18;;;6.20;99.90;;;;;;4962745;28;20401;-84
2021/12/29 00:13:04;;;;;;;25.38;4.32;;;6.20;99.90;;;;;;4978721;28;20085;-84
2021/12/29 00:15:30;;;;;;;24.58;4.97;;;6.20;99.90;;;;;;5010910;28;20019;-84
2021/12/29 00:17:57;;;;;;;23.17;4.45;;;6.20;99.90;;;;;;4962420;28;20034;-84
2021/12/29 00:20:29;;;;;;;16.05;3.65;;;6.20;99.90;;;;;;4995654;28;20034;-84
2021/12/29 00:22:55;;;;;;;;;;;6.20;99.90;;;;;;4994938;28;20125;-84
2021/12/29 00:25:21;;;;;;;18.70;3.55;;;6.20;99.90;;;;;;5010488;28;19913;-85
2021/12/29 00:27:47;;;;;;;22.50;5.82;;;6.20;99.90;;;;;;4978403;28;20102;-84
2021/12/29 00:30:13;;;;;;;9.48;3.13;;;6.20;99.90;;;;;;4962088;28;20537;-84
2021/12/29 00:32:56;;;;;;;16.00;3.75;;;6.20;99.90;;;;;;4995951;28;20095;-84
2021/12/29 00:35:51;;;;;;;17.63;3.85;;;6.20;99.90;;;;;;4982176;28;20158;-84
2021/12/29 00:38:29;;;;;;;14.07;3.72;;;6.20;99.90;;;;;;4979677;28;20088;-83
2021/12/29 00:41:14;;;;;;;9.98;3.05;;;6.20;99.90;;;;;;4980699;28;20470;-83
2021/12/29 00:44:02;;;;;;;15.45;3.92;;;6.20;99.90;;;;;;4995250;28;20046;-83
2021/12/29 00:46:58;;;;;;;15.23;3.83;;;6.20;99.90;;;;;;4975127;28;20046;-84
2021/12/29 00:49:31;;;;;;;14.15;3.20;;;6.20;99.90;;;;;;5010289;28;20038;-84
2021/12/29 00:51:59;;;;;;;7.50;3.58;;;6.20;99.90;;;;;;4961677;28;20057;-84
2021/12/29 00:54:25;;;;;;;9.52;3.28;;;6.20;99.90;;;;;;5010001;28;20117;-83
2021/12/29 00:56:50;;;;;;;13.05;3.35;;;6.20;99.90;;;;;;5010340;28;20467;-84
2021/12/29 00:59:16;;;;;;;15.65;3.90;;;6.20;99.90;;;;;;4993783;28;20057;-84
2021/12/29 01:01:42;;;;;;;10.25;2.70;;;6.20;99.90;;;;;;4995015;28;20064;-83
2021/12/29 01:04:08;;;;;;;10.75;3.85;;;6.20;99.90;;;;;;4977253;28;20390;-83
2021/12/29 01:06:33;;;;;;;9.48;3.20;;;6.20;99.90;;;;;;4995093;28;20038;-84
2021/12/29 01:08:59;;;;;;;12.40;3.67;;;6.20;99.90;;;;;;4961487;28;20062;-83
2021/12/29 01:11:26;;;;;;;13.55;3.00;;;6.20;99.90;;;;;;4993750;28;20030;-84
2021/12/29 01:13:51;;;;;;;11.82;3.58;;;6.20;99.90;;;;;;4977198;28;20514;-84
2021/12/29 01:19:19;;;;;;;;;;;6.20;99.90;;;;;;4994095;28;20045;-84
2021/12/29 01:21:49;;;;;;;17.23;3.38;;;6.20;99.90;;;;;;4976875;28;19941;-83
2021/12/29 01:24:16;;;;;;;15.43;4.00;;;6.20;99.90;;;;;;4977251;28;20033;-84
2021/12/29 01:26:43;;;;;;;17.67;3.67;;;6.20;99.90;;;;;;4977212;28;20030;-84
2021/12/29 01:29:13;;;;;;;11.55;3.42;;;6.20;99.90;;;;;;4961094;28;20037;-84
2021/12/29 01:31:40;;;;;;;21.63;3.72;;;6.20;99.90;;;;;;4977183;28;20066;-84
2021/12/29 01:34:06;;;;;;;10.77;3.55;;;6.20;99.90;;;;;;4960835;28;20022;-84
2021/12/29 01:36:34;;;;;;;18.27;4.13;;;6.20;99.90;;;;;;4960513;28;20030;-84
2021/12/29 01:39:03;;;;;;;13.93;3.38;;;6.20;99.90;;;;;;4976562;28;20121;-84
2021/12/29 01:41:29;;;;;;;10.60;3.25;;;6.20;99.90;;;;;;5009275;28;20493;-84
2021/12/29 01:43:55;;;;;;;9.52;3.20;;;6.20;99.90;;;;;;4976338;28;20563;-83
2021/12/29 01:46:21;;;;;;;86.63;33.78;;;6.20;99.90;;;;;;4976509;28;20034;-84
2021/12/29 01:48:47;;;;;;;20.08;6.95;;;6.20;99.90;;;;;;4960180;28;20040;-83
2021/12/29 01:51:16;;;;;;;8.73;3.10;;;6.20;99.90;;;;;;4960314;28;20034;-84
2021/12/29 01:53:48;;;;;;;14.38;2.58;;;6.20;99.90;;;;;;4960204;28;20030;-84
2021/12/29 01:56:15;;;;;;;13.07;2.80;;;6.20;99.90;;;;;;4960247;28;20504;-84
2021/12/29 01:58:41;;;;;;;10.25;3.35;;;6.20;99.90;;;;;;4960434;28;20406;-84
2021/12/29 02:01:07;;;;;;;6.40;2.42;;;6.20;99.90;;;;;;4960487;28;20736;-84
2021/12/29 02:03:33;;;;;;;8.73;2.55;;;6.20;99.90;;;;;;4960306;28;20026;-84
2021/12/29 02:05:59;;;;;;;10.85;2.78;;;6.20;99.90;;;;;;4992522;28;20064;-84
2021/12/29 02:08:24;;;;;;;6.20;2.90;;;6.20;99.90;;;;;;4960482;28;20501;-83
2021/12/29 02:10:52;;;;;;;9.40;3.08;;;6.30;99.90;;;;;;4976668;28;20084;-84
2021/12/29 02:13:22;;;;;;;11.10;2.72;;;6.20;99.90;;;;;;5008745;28;20041;-84
2021/12/29 02:15:49;;;;;;;7.88;2.40;;;6.20;99.90;;;;;;4960543;28;20030;-84
2021/12/29 02:18:18;;;;;;;7.25;3.08;;;6.20;99.90;;;;;;4976622;28;20107;-84
2021/12/29 02:20:50;;;;;;;10.93;3.03;;;6.20;99.90;;;;;;4993965;28;20042;-84
2021/12/29 02:23:27;;;;;;;6.55;2.67;;;6.20;99.90;;;;;;4960253;28;20050;-85
2021/12/29 02:25:56;;;;;;;7.18;2.90;;;6.20;99.90;;;;;;4960433;28;20062;-84
2021/12/29 02:28:35;;;;;;;5.30;2.80;;;6.20;99.90;;;;;;4960269;28;20117;-84
2021/12/29 02:31:02;;;;;;;13.45;2.60;;;6.20;99.90;;;;;;5008689;28;20065;-82
2021/12/29 02:33:30;;;;;;;5.60;2.15;;;6.20;99.90;;;;;;4992306;28;20519;-84
2021/12/29 02:35:58;;;;;;;8.02;2.03;;;6.20;99.90;;;;;;5008673;28;20096;-84
2021/12/29 02:38:28;;;;;;;6.13;2.47;;;6.20;99.90;;;;;;4959995;28;20124;-84
2021/12/29 02:40:59;;;;;;;5.43;2.65;;;6.10;99.90;;;;;;4976610;28;20034;-84
2021/12/29 02:43:26;;;;;;;13.10;3.72;;;6.20;99.90;;;;;;5008562;28;20038;-84
2021/12/29 02:45:58;;;;;;;6.45;3.13;;;6.20;99.90;;;;;;4976147;28;20037;-84
2021/12/29 02:48:35;;;;;;;12.40;3.15;;;6.20;99.90;;;;;;5009892;28;20034;-84
2021/12/29 02:51:01;;;;;;;9.07;2.80;;;6.20;99.90;;;;;;4980105;28;20026;-84
2021/12/29 02:53:28;;;;;;;9.95;3.72;;;6.20;99.90;;;;;;4963740;28;20033;-84
2021/12/29 02:55:54;;;;;;;5.30;3.00;;;6.20;99.90;;;;;;4997285;28;20105;-85
2021/12/29 02:58:22;;;;;;;6.80;3.53;;;6.20;99.90;;;;;;4979879;28;20034;-84
2021/12/29 03:00:49;;;;;;;5.63;2.90;;;6.20;99.90;;;;;;4979811;28;20058;-84
2021/12/29 03:03:18;;;;;;;6.18;2.78;;;6.20;99.90;;;;;;4979506;28;20064;-84
2021/12/29 03:05:44;;;;;;;10.02;2.20;;;6.20;99.90;;;;;;4995668;28;20088;-84
2021/12/29 03:08:12;;;;;;;4.35;2.47;;;6.10;99.90;;;;;;4979468;28;20728;-84
2021/12/29 03:10:39;;;;;;;6.78;2.83;;;6.20;99.90;;;;;;5012260;28;20092;-84
2021/12/29 03:13:05;;;;;;;2.92;2.10;;;6.20;99.90;;;;;;4995795;28;20434;-84
2021/12/29 03:15:31;;;;;;;4.40;2.25;;;6.10;99.90;;;;;;4963355;28;20065;-84
2021/12/29 03:18:13;;;;;;;4.10;2.30;;;6.10;99.90;;;;;;4995698;28;20031;-83
2021/12/29 03:20:39;;;;;;;4.50;2.45;;;6.10;99.90;;;;;;5012048;28;20510;-84
2021/12/29 03:23:04;;;;;;;6.32;2.42;;;6.10;99.90;;;;;;4962568;28;20035;-83
2021/12/29 03:25:30;;;;;;;9.60;2.70;;;6.20;99.90;;;;;;4963284;28;20046;-84
2021/12/29 03:27:58;;;;;;;6.65;2.55;;;6.10;99.90;;;;;;4963065;28;20057;-83
2021/12/29 03:30:29;;;;;;;8.02;2.85;;;6.10;99.90;;;;;;4995712;28;20517;-84
2021/12/29 03:33:05;;;;;;;8.23;3.45;;;6.10;99.90;;;;;;4963335;28;20080;-83
2021/12/29 03:35:38;;;;;;;9.48;3.85;;;6.10;99.90;;;;;;4995520;28;20076;-83
2021/12/29 03:38:07;;;;;;;8.43;4.03;;;6.10;99.90;;;;;;4979359;28;20218;-84
2021/12/29 03:40:35;;;;;;;7.03;4.03;;;6.10;99.90;;;;;;4962644;28;20046;-84
2021/12/29 03:43:03;;;;;;;10.60;4.03;;;6.10;99.90;;;;;;5011620;28;20038;-84
2021/12/29 03:45:29;;;;;;;9.05;3.95;;;6.10;99.90;;;;;;4962912;28;20054;-84
2021/12/29 03:47:55;;;;;;;6.47;3.42;;;6.10;99.90;;;;;;5011402;28;20030;-83
2021/12/29 03:50:21;;;;;;;7.45;3.85;;;6.20;99.90;;;;;;4962746;28;20116;-84
2021/12/29 03:52:47;;;;;;;7.65;4.00;;;6.10;99.90;;;;;;4962820;28;20088;-83
2021/12/29 03:55:13;;;;;;;9.57;4.00;;;6.10;99.90;;;;;;4962486;28;20036;-84
2021/12/29 03:57:40;;;;;;;8.30;4.07;;;6.10;99.90;;;;;;4962795;28;20026;-84
2021/12/29 04:00:11;;;;;;;9.07;3.95;;;6.10;99.90;;;;;;4962196;28;20038;-84
2021/12/29 04:02:37;;;;;;;11.95;4.68;;;6.10;99.90;;;;;;4978750;28;20026;-84
2021/12/29 04:05:05;;;;;;;16.60;4.72;;;6.10;99.90;;;;;;4978615;28;20074;-83
2021/12/29 04:07:31;;;;;;;13.38;4.13;;;6.10;99.90;;;;;;4978309;28;20034;-84
2021/12/29 04:09:57;;;;;;;10.10;4.50;;;6.10;99.90;;;;;;4962721;28;20042;-84
2021/12/29 04:12:23;;;;;;;10.30;4.05;;;6.10;99.90;;;;;;4962521;28;20120;-84
2021/12/29 04:14:49;;;;;;;13.68;3.97;;;6.10;99.90;;;;;;4994664;28;20121;-84
2021/12/29 04:17:18;;;;;;;9.95;4.97;;;6.10;99.90;;;;;;4978197;28;20031;-84
2021/12/29 04:22:30;;;;;;;10.90;3.95;;;6.00;99.90;;;;;;4994667;28;20548;-84
2021/12/29 04:24:56;;;;;;;8.52;4.50;;;6.10;99.90;;;;;;4995463;28;20034;-82
2021/12/29 04:27:24;;;;;;;9.52;4.07;;;6.00;99.90;;;;;;4978115;28;20033;-84
2021/12/29 04:29:50;;;;;;;8.70;3.72;;;6.10;99.90;;;;;;5010442;28;20394;-83
2021/12/29 04:32:16;;;;;;;8.82;4.43;;;6.10;99.90;;;;;;5010367;28;20035;-84
2021/12/29 04:34:42;;;;;;;9.00;3.42;;;6.00;99.90;;;;;;4977846;28;20038;-84
2021/12/29 04:37:07;;;;;;;11.55;4.38;;;6.00;99.90;;;;;;4995209;28;20672;-84
2021/12/29 04:39:33;;;;;;;8.27;4.20;;;6.10;99.90;;;;;;4961687;28;20030;-84
2021/12/29 04:41:59;;;;;;;9.07;4.00;;;6.00;99.90;;;;;;4977926;28;20058;-84
2021/12/29 04:44:24;;;;;;;8.77;3.60;;;6.00;99.90;;;;;;4977796;28;20033;-84
2021/12/29 04:46:51;;;;;;;7.80;3.85;;;6.00;99.90;;;;;;4993846;28;20038;-84
2021/12/29 04:49:23;;;;;;;7.00;2.90;;;6.10;99.90;;;;;;5010230;28;20405;-83
2021/12/29 04:52:09;;;;;;;9.55;3.80;;;6.00;99.90;;;;;;4961722;28;20052;-83
2021/12/29 04:54:35;;;;;;;8.75;4.43;;;6.10;99.90;;;;;;4961376;28;20030;-84
2021/12/29 04:57:01;;;;;;;7.43;3.13;;;6.00;99.90;;;;;;4993627;28;20022;-83
2021/12/29 04:59:28;;;;;;;9.85;4.57;;;6.00;99.90;;;;;;4993776;28;20049;-84
2021/12/29 05:01:54;;;;;;;11.15;4.00;;;6.00;99.90;;;;;;4977673;28;20030;-85
2021/12/29 05:04:23;;;;;;;6.28;3.72;;;6.00;99.90;;;;;;4977066;28;20041;-84
2021/12/29 05:09:34;;;;;;;8.77;4.63;;;6.00;99.90;;;;;;4993142;28;20073;-84
2021/12/29 05:12:01;;;;;;;8.30;4.25;;;6.00;99.90;;;;;;4960188;28;20026;-84
2021/12/29 05:14:28;;;;;;;9.80;4.57;;;6.00;99.90;;;;;;4993258;28;20077;-85
2021/12/29 05:16:53;;;;;;;15.90;4.60;;;6.00;99.90;;;;;;4977392;28;20034;-84
2021/12/29 05:19:20;;;;;;;6.97;3.97;;;6.00;99.90;;;;;;4993442;28;20474;-84
2021/12/29 05:21:45;;;;;;;11.05;5.53;;;6.00;99.90;;;;;;5009372;28;20389;-84
2021/12/29 05:24:11;;;;;;;11.63;5.65;;;6.00;99.90;;;;;;4961963;28;20034;-84
2021/12/29 05:26:38;;;;;;;9.75;5.35;;;6.00;99.90;;;;;;4961783;28;20713;-84
2021/12/29 05:29:13;;;;;;;11.82;5.07;;;6.00;99.90;;;;;;4961935;28;20048;-83
2021/12/29 05:31:39;;;;;;;9.88;5.10;;;6.00;99.90;;;;;;4994096;28;20031;-84
2021/12/29 05:34:04;;;;;;;16.40;4.70;;;6.00;99.90;;;;;;4993912;28;20053;-83
2021/12/29 05:36:30;;;;;;;7.90;4.07;;;6.00;99.90;;;;;;4977905;28;20463;-84
2021/12/29 05:38:57;;;;;;;9.65;4.15;;;6.00;99.90;;;;;;4961755;28;20091;-84
2021/12/29 05:41:24;;;;;;;200.75;73.07;;;6.00;99.90;;;;;;4961508;28;20045;-84
2021/12/29 05:43:50;;;;;;;158.90;49.70;;;6.10;99.90;;;;;;4977164;28;20522;-83
2021/12/29 05:46:18;;;;;;;8.27;4.03;;;6.00;99.90;;;;;;4977423;28;20037;-83
2021/12/29 05:48:56;;;;;;;6.50;3.90;;;6.00;99.90;;;;;;4993487;28;20083;-84
2021/12/29 05:51:22;;;;;;;7.75;3.72;;;6.00;99.90;;;;;;4993471;28;20034;-85
2021/12/29 05:53:48;;;;;;;11.15;5.03;;;6.10;99.90;;;;;;4961307;28;20470;-83
2021/12/29 05:56:13;;;;;;;12.23;4.88;;;6.00;99.90;;;;;;4977674;28;20034;-83
2021/12/29 05:58:39;;;;;;;15.30;7.38;;;6.00;99.90;;;;;;4961407;28;20042;-84
2021/12/29 06:01:05;;;;;;;16.17;6.78;;;6.00;99.90;;;;;;4961391;28;20485;-84
2021/12/29 06:03:31;;;;;;;14.30;6.78;;;6.00;99.90;;;;;;4960949;28;20039;-84
2021/12/29 06:05:57;;;;;;;19.42;7.75;;;6.00;99.90;;;;;;4993481;28;20035;-84
2021/12/29 06:08:23;;;;;;;17.92;8.30;;;6.00;99.90;;;;;;4993651;28;20066;-84
2021/12/29 06:10:48;;;;;;;24.13;8.82;;;6.00;99.90;;;;;;4977137;28;20516;-84
2021/12/29 06:13:14;;;;;;;24.75;8.60;;;6.00;99.90;;;;;;4977118;28;20133;-84
2021/12/29 06:15:40;;;;;;;14.93;8.43;;;6.00;99.90;;;;;;4961129;28;20733;-84
2021/12/29 06:18:06;;;;;;;16.77;8.00;;;6.00;99.90;;;;;;4977303;28;20030;-83
2021/12/29 06:20:32;;;;;;;21.08;8.27;;;6.00;99.90;;;;;;4977434;28;20394;-84
2021/12/29 06:22:58;;;;;;;27.58;8.63;;;5.90;99.90;;;;;;4979535;28;20057;-85
2021/12/29 06:25:28;;;;;;;19.92;8.30;;;6.00;99.90;;;;;;4997466;28;20426;-83
2021/12/29 06:27:54;;;;;;;18.50;8.90;;;6.00;99.90;;;;;;4965254;28;20045;-84
2021/12/29 06:30:20;;;;;;;19.60;8.40;;;5.90;99.90;;;;;;4964476;28;20031;-84
2021/12/29 06:32:46;;;;;;;15.77;7.47;;;6.00;99.90;;;;;;4965195;28;20050;-84
2021/12/29 06:35:14;;;;;;;14.60;7.78;;;6.00;99.90;;;;;;4997209;28;20060;-84
2021/12/29 06:37:40;;;;;;;17.33;7.65;;;6.00;99.90;;;;;;4980852;28;20106;-85
2021/12/29 06:40:07;;;;;;;28.48;8.85;;;6.00;99.90;;;;;;4964888;28;20121;-85
2021/12/29 06:42:33;;;;;;;18.38;7.95;;;6.00;99.90;;;;;;4980835;28;20042;-84
2021/12/29 06:44:59;;;;;;;19.38;7.20;;;6.00;99.90;;;;;;4964537;28;20034;-84
2021/12/29 06:47:26;;;;;;;22.67;9.55;;;5.90;99.90;;;;;;4980868;28;20042;-84
2021/12/29 06:49:52;;;;;;;23.67;8.98;;;6.00;99.90;;;;;;4965042;28;20026;-84
2021/12/29 06:52:17;;;;;;;16.73;7.90;;;5.90;99.90;;;;;;4997406;28;20033;-84
2021/12/29 06:54:44;;;;;;;19.88;8.15;;;5.90;99.90;;;;;;4980724;28;20614;-84
2021/12/29 06:57:10;;;;;;;18.13;7.00;;;6.00;99.90;;;;;;4964391;28;20038;-84
2021/12/29 06:59:36;;;;;;;17.92;7.90;;;6.00;99.90;;;;;;5013386;28;20490;-84
2021/12/29 07:02:02;;;;;;;18.02;7.63;;;6.00;99.90;;;;;;4997118;28;20034;-84
2021/12/29 07:04:28;;;;;;;20.10;8.50;;;6.00;99.90;;;;;;5013016;28;20031;-84
2021/12/29 07:06:54;;;;;;;21.95;8.45;;;6.00;99.90;;;;;;4967004;28;20073;-84
2021/12/29 07:09:20;;;;;;;20.00;8.45;;;6.00;99.90;;;;;;4964257;28;20394;-85
2021/12/29 07:11:46;;;;;;;18.73;8.20;;;6.00;99.90;;;;;;4980068;28;20037;-83
2021/12/29 07:14:12;;;;;;;19.98;9.68;;;6.00;99.90;;;;;;4963653;28;20031;-84
2021/12/29 07:16:39;;;;;;;23.30;9.50;;;6.00;99.90;;;;;;4964352;28;20389;-84
2021/12/29 07:19:06;;;;;;;25.92;10.77;;;6.00;99.90;;;;;;4964044;28;20041;-84
2021/12/29 07:21:32;;;;;;;23.05;10.18;;;6.00;99.90;;;;;;4996676;28;20030;-86
2021/12/29 07:23:58;;;;;;;16.05;8.85;;;6.00;99.90;;;;;;4980654;28;20038;-86
2021/12/29 07:26:34;;;;;;;22.63;10.73;;;6.00;99.90;;;;;;4964689;28;20045;-86
2021/12/29 07:29:00;;;;;;;18.85;9.50;;;6.00;99.90;;;;;;4983461;28;20045;-86
2021/12/29 07:31:27;;;;;;;27.17;9.35;;;6.00;99.90;;;;;;4966586;28;20544;-86
2021/12/29 07:33:53;;;;;;;24.30;9.18;;;6.00;99.90;;;;;;4963932;28;20038;-85
2021/12/29 07:36:19;;;;;;;21.90;8.82;;;6.00;99.90;;;;;;4964077;28;20034;-85
2021/12/29 07:38:45;;;;;;;18.90;9.15;;;6.00;99.90;;;;;;5012864;28;20060;-86
2021/12/29 07:41:12;;;;;;;20.38;8.20;;;6.00;99.90;;;;;;4964308;28;20039;-86
2021/12/29 07:43:39;;;;;;;20.35;9.13;;;6.00;99.90;;;;;;4964257;28;20035;-85
2021/12/29 07:46:05;;;;;;;17.75;8.90;;;6.00;99.90;;;;;;5012807;28;20041;-86
2021/12/29 07:48:32;;;;;;;15.00;7.32;;;6.00;99.90;;;;;;4965052;28;20481;-85
2021/12/29 07:51:00;;;;;;;20.33;9.05;;;6.00;99.90;;;;;;4980793;28;20023;-86
2021/12/29 07:53:26;;;;;;;18.70;9.23;;;6.00;99.90;;;;;;4980263;28;20034;-86
2021/12/29 07:55:52;;;;;;;15.48;7.78;;;6.10;99.90;;;;;;4963790;28;20037;-87
2021/12/29 07:58:18;;;;;;;12.25;8.02;;;6.10;99.90;;;;;;5012170;28;20482;-86
2021/12/29 08:00:45;;;;;;;28.40;8.05;;;6.00;99.90;;;;;;4978756;28;20038;-86
2021/12/29 08:03:12;;;;;;;17.65;8.30;;;6.00;99.90;;;;;;4963037;28;20514;-86
2021/12/29 08:05:38;;;;;;;14.43;6.88;;;6.10;99.90;;;;;;4979557;28;20649;-87
2021/12/29 08:08:06;;;;;;;15.30;6.82;;;6.00;99.90;;;;;;4963297;28;20048;-86
2021/12/29 08:10:39;;;;;;;13.75;6.35;;;6.00;99.90;;;;;;4963173;28;20030;-85
2021/12/29 08:13:06;;;;;;;21.00;7.80;;;6.00;99.90;;;;;;5012196;28;20030;-85
2021/12/29 08:15:34;;;;;;;12.88;7.70;;;6.10;99.90;;;;;;5011928;28;20058;-87
2021/12/29 08:18:02;;;;;;;13.93;6.70;;;6.10;99.90;;;;;;4963214;28;20482;-85
2021/12/29 08:20:29;;;;;;;12.95;6.82;;;6.10;99.90;;;;;;4963332;28;20030;-86
2021/12/29 08:22:55;;;;;;;13.20;6.15;;;6.10;99.90;;;;;;4963688;28;20038;-86
2021/12/29 08:25:21;;;;;;;19.92;7.45;;;6.10;99.90;;;;;;4963269;28;20030;-86
2021/12/29 08:27:47;;;;;;;12.77;6.47;;;6.20;99.90;;;;;;4963750;28;20429;-86
2021/12/29 08:30:13;;;;;;;9.50;5.55;;;6.20;99.90;;;;;;4962978;28;20036;-85
2021/12/29 08:32:39;;;;;;;12.85;5.57;;;6.20;99.90;;;;;;4995508;28;20038;-86
2021/12/29 08:35:05;;;;;;;12.32;5.22;;;6.20;99.90;;;;;;4979079;28;20037;-85
2021/12/29 08:37:31;;;;;;;98.57;43.17;;;6.20;99.90;;;;;;4963332;28;20023;-86
2021/12/29 08:39:57;;;;;;;14.02;6.80;;;6.30;99.90;;;;;;4979567;28;20050;-87
2021/12/29 08:42:23;;;;;;;11.63;5.70;;;6.20;99.90;;;;;;4995738;28;20034;-86
2021/12/29 08:44:49;;;;;;;17.02;6.20;;;6.30;99.90;;;;;;4963516;28;20034;-86
2021/12/29 08:47:17;;;;;;;10.13;5.22;;;6.30;99.90;;;;;;4978473;28;20045;-87
2021/12/29 08:49:43;;;;;;;9.15;4.65;;;6.30;99.90;;;;;;4963719;28;20030;-87
2021/12/29 08:52:11;;;;;;;10.10;5.05;;;6.20;99.90;;;;;;4963211;28;20035;-84
2021/12/29 08:54:37;;;;;;;11.50;5.80;;;6.20;99.90;;;;;;4963319;28;20031;-85
2021/12/29 08:57:06;;;;;;;16.55;5.72;;;6.10;99.90;;;;;;4963755;28;20041;-85
2021/12/29 08:59:32;;;;;;;17.42;8.20;;;6.20;99.90;;;;;;4980334;28;20026;-86
2021/12/29 09:01:58;;;;;;;10.98;5.65;;;6.10;99.90;;;;;;4963640;28;20125;-86
2021/12/29 09:04:23;;;;;;;10.70;7.07;;;6.20;99.90;;;;;;4996356;28;20482;-86
2021/12/29 09:06:49;;;;;;;17.80;5.72;;;6.20;99.90;;;;;;4996104;28;20071;-87
2021/12/29 09:09:15;;;;;;;15.02;5.43;;;6.30;99.90;;;;;;4979579;28;20042;-87
2021/12/29 09:11:41;;;;;;;9.95;4.57;;;6.30;99.90;;;;;;4979541;28;20041;-88
2021/12/29 09:14:07;;;;;;;10.90;4.30;;;6.30;99.90;;;;;;4962566;28;20169;-86
2021/12/29 09:16:33;;;;;;;7.55;3.83;;;6.30;99.90;;;;;;4996402;28;20065;-87
2021/12/29 09:19:17;;;;;;;8.07;4.00;;;6.40;99.90;;;;;;4962800;28;20375;-86
2021/12/29 09:21:44;;;;;;;9.60;3.95;;;6.40;99.90;;;;;;4962492;28;20041;-86
2021/12/29 09:24:11;;;;;;;9.45;3.83;;;6.30;99.90;;;;;;4963214;28;20045;-88
2021/12/29 09:26:38;;;;;;;8.18;4.60;;;6.40;99.90;;;;;;5011042;28;20499;-87
2021/12/29 09:29:04;;;;;;;5.85;3.35;;;6.40;99.90;;;;;;4994618;28;20065;-87
2021/12/29 09:31:30;;;;;;;7.50;3.85;;;6.30;99.90;;;;;;4962665;28;20057;-87
2021/12/29 09:33:56;;;;;;;11.45;4.03;;;6.40;99.90;;;;;;4961873;28;20034;-86
2021/12/29 09:36:23;;;;;;;10.27;3.30;;;6.50;99.90;;;;;;4978365;28;20035;-88
2021/12/29 09:38:48;;;;;;;10.82;3.80;;;6.50;99.90;;;;;;5012527;28;20096;-86
2021/12/29 09:41:17;;;;;;;9.23;4.47;;;6.60;99.90;;;;;;4996868;28;20030;-88
2021/12/29 09:43:44;;;;;;;8.80;3.15;;;6.70;99.90;;;;;;4965132;28;20044;-87
2021/12/29 09:46:10;;;;;;;8.38;3.63;;;6.70;99.90;;;;;;4963150;28;20504;-87
2021/12/29 09:48:36;;;;;;;22.92;11.00;;;6.70;99.90;;;;;;4996363;28;20114;-87
2021/12/29 09:51:03;;;;;;;12.23;3.60;;;6.80;99.90;;;;;;4980331;28;20030;-87
2021/12/29 09:53:29;;;;;;;6.97;3.80;;;6.80;99.90;;;;;;4980142;28;20037;-88
2021/12/29 09:55:55;;;;;;;8.32;3.63;;;6.80;99.90;;;;;;4996696;28;20498;-88
2021/12/29 09:58:21;;;;;;;15.00;3.45;;;6.80;99.90;;;;;;4979695;28;20038;-86
2021/12/29 10:00:55;;;;;;;12.40;4.05;;;6.80;99.90;;;;;;4980949;28;20034;-87
2021/12/29 10:03:22;;;;;;;5.10;3.17;;;6.70;99.90;;;;;;4963653;28;20052;-88
2021/12/29 10:05:52;;;;;;;13.40;4.90;;;6.70;99.90;;;;;;4979141;28;20065;-87
2021/12/29 10:08:40;;;;;;;13.05;3.78;;;6.70;99.90;;;;;;4963215;28;20436;-87
2021/12/29 10:11:12;;;;;;;8.30;4.20;;;6.80;99.90;;;;;;4962775;28;20034;-86
2021/12/29 10:13:42;;;;;;;12.27;3.65;;;6.90;99.90;;;;;;4962003;28;20026;-87
2021/12/29 10:16:20;;;;;;;14.20;3.90;;;6.90;99.90;;;;;;4994726;28;20038;-87
2021/12/29 10:18:53;;;;;;;16.45;4.82;;;6.80;99.90;;;;;;4978118;28;20034;-86
2021/12/29 10:21:22;;;;;;;10.38;4.05;;;6.80;99.90;;;;;;4962492;28;20039;-87
2021/12/29 10:23:54;;;;;;;16.10;3.85;;;6.70;99.90;;;;;;4994633;28;20042;-87
2021/12/29 10:26:22;;;;;;;13.57;4.50;;;6.70;99.90;;;;;;4978498;28;20038;-88
2021/12/29 10:28:54;;;;;;;19.08;6.82;;;6.80;99.90;;;;;;4978023;28;20049;-87
2021/12/29 10:31:25;;;;;;;17.05;7.72;;;6.80;99.90;;;;;;4962615;28;20552;-87
2021/12/29 10:33:52;;;;;;;;;;;6.80;99.90;;;;;;4978971;28;20041;-87
2021/12/29 10:36:43;;;;;;;18.13;7.80;;;6.80;99.90;;;;;;4978092;28;19960;-88
2021/12/29 10:39:14;;;;;;;22.35;7.10;;;6.80;99.90;;;;;;4962856;28;20026;-87
2021/12/29 10:41:52;;;;;;;16.85;4.75;;;6.70;99.90;;;;;;5009626;28;20088;-87
2021/12/29 10:44:42;;;;;;;17.83;6.10;;;6.80;99.90;;;;;;4977271;28;20112;-88
2021/12/29 10:47:23;;;;;;;13.10;5.95;;;6.80;99.90;;;;;;4952072;28;20046;-87
2021/12/29 10:50:03;;;;;;;12.75;5.30;;;6.80;99.90;;;;;;4977639;28;20038;-87
2021/12/29 10:52:38;;;;;;;19.98;5.30;;;6.80;99.90;;;;;;4962728;28;20125;-87
2021/12/29 10:55:08;;;;;;;23.15;6.13;;;6.80;99.90;;;;;;4978448;28;20093;-87
2021/12/29 10:57:34;;;;;;;24.20;6.90;;;6.90;99.90;;;;;;4979733;28;20034;-89
2021/12/29 11:00:02;;;;;;;13.68;5.72;;;6.90;99.90;;;;;;4995523;28;20084;-89
2021/12/29 11:02:35;;;;;;;19.35;5.55;;;7.00;99.90;;;;;;4978379;28;20038;-88
2021/12/29 11:05:05;;;;;;;17.00;6.45;;;7.00;99.90;;;;;;4961439;28;20041;-88
2021/12/29 11:07:32;;;;;;;25.38;7.18;;;7.10;99.90;;;;;;4964114;28;20402;-88
2021/12/29 11:10:14;;;;;;;17.88;6.93;;;7.10;99.90;;;;;;4980740;28;20031;-89
2021/12/29 11:12:58;;;;;;;22.80;6.25;;;7.20;99.90;;;;;;4981255;28;20026;-88
2021/12/29 11:15:37;;;;;;;29.42;5.40;;;7.20;99.90;;;;;;4996985;28;20445;-88
2021/12/29 11:18:07;;;;;;;14.93;5.07;;;7.10;99.90;;;;;;4997289;28;20030;-89
2021/12/29 11:20:34;;;;;;;30.80;12.80;;;7.10;99.90;;;;;;4964830;28;20030;-91
2021/12/29 11:23:13;;;;;;;28.30;9.60;;;7.20;99.90;;;;;;4997816;28;20031;-88
2021/12/29 11:25:41;;;;;;;17.55;6.68;;;7.20;99.90;;;;;;4980710;28;20401;-88
2021/12/29 11:28:18;;;;;;;14.75;5.72;;;7.40;99.90;;;;;;4996604;28;20045;-88
2021/12/29 11:30:44;;;;;;;14.23;5.68;;;7.40;99.90;;;;;;4980350;28;20124;-88
2021/12/29 11:33:11;;;;;;;17.58;5.88;;;7.30;99.90;;;;;;4964083;28;20027;-88
2021/12/29 11:35:40;;;;;;;16.55;4.50;;;7.40;99.90;;;;;;4963506;28;20054;-88
2021/12/29 11:38:07;;;;;;;13.93;3.75;;;7.50;99.90;;;;;;4979351;28;20045;-88
2021/12/29 11:40:36;;;;;;;12.07;3.78;;;7.30;99.90;;;;;;4997132;28;20038;-88
2021/12/29 11:43:02;;;;;;;12.75;3.28;;;7.30;99.90;;;;;;4963392;28;20042;-89
2021/12/29 11:45:28;;;;;;;10.95;2.83;;;7.20;99.90;;;;;;4963455;28;20035;-88
2021/12/29 11:48:12;;;;;;;8.63;3.38;;;7.10;99.90;;;;;;4996598;28;20137;-88
2021/12/29 11:50:51;;;;;;;13.40;3.45;;;7.00;99.90;;;;;;4963277;28;20026;-88
2021/12/29 11:53:48;;;;;;;8.05;3.00;;;7.00;99.90;;;;;;4962874;28;20050;-89
2021/12/29 11:56:18;;;;;;;18.25;6.25;;;7.00;99.90;;;;;;5012225;28;20045;-88
2021/12/29 11:58:46;;;;;;;22.13;7.45;;;7.10;99.90;;;;;;4963756;28;20843;-88
2021/12/29 12:01:22;;;;;;;18.13;4.75;;;7.10;99.90;;;;;;4980475;28;20036;-88
2021/12/29 12:03:53;;;;;;;17.35;6.90;;;7.30;99.90;;;;;;4962931;28;20041;-87
2021/12/29 12:06:20;;;;;;;;;;;7.50;99.90;;;;;;4979347;28;20065;-87
2021/12/29 12:08:46;;;;;;;13.77;5.78;;;7.60;99.90;;;;;;4962792;28;19914;-88
2021/12/29 12:11:25;;;;;;;14.40;5.78;;;7.60;99.90;;;;;;4962811;28;20434;-88
2021/12/29 12:13:51;;;;;;;10.13;4.20;;;7.80;99.90;;;;;;4978789;28;20026;-87
2021/12/29 12:16:16;;;;;;;15.35;3.88;;;7.60;99.90;;;;;;4963040;28;20026;-88
2021/12/29 12:18:54;;;;;;;9.57;3.30;;;7.40;99.90;;;;;;4962816;28;20096;-88
2021/12/29 12:21:29;;;;;;;16.67;4.78;;;7.30;99.90;;;;;;4979168;28;20361;-87
2021/12/29 12:24:11;;;;;;;11.35;3.70;;;7.20;99.90;;;;;;4980026;28;20080;-89
2021/12/29 12:26:50;;;;;;;18.42;4.30;;;7.10;99.90;;;;;;5013267;28;20053;-87
2021/12/29 12:29:16;;;;;;;12.02;4.25;;;7.10;99.90;;;;;;4980529;28;20042;-89
2021/12/29 12:31:46;;;;;;;16.55;4.72;;;7.10;99.90;;;;;;4962748;28;20044;-88
2021/12/29 12:34:22;;;;;;;12.32;4.28;;;7.10;99.90;;;;;;5011016;28;20047;-88
2021/12/29 12:36:48;;;;;;;14.95;4.65;;;7.00;99.90;;;;;;4996381;28;20046;-88
2021/12/29 12:39:17;;;;;;;17.33;4.50;;;6.90;99.90;;;;;;4964339;28;20046;-87
2021/12/29 12:41:45;;;;;;;13.40;4.07;;;6.80;99.90;;;;;;4964202;28;20038;-87
2021/12/29 12:44:11;;;;;;;12.57;4.65;;;6.80;99.90;;;;;;4961750;28;20125;-88
2021/12/29 12:46:38;;;;;;;13.55;4.57;;;6.80;99.90;;;;;;4961937;28;20069;-87
2021/12/29 12:49:26;;;;;;;17.48;5.20;;;6.70;99.90;;;;;;4977955;28;20038;-89
2021/12/29 12:52:03;;;;;;;31.27;15.77;;;6.70;99.90;;;;;;4981968;28;20503;-87
2021/12/29 12:54:35;;;;;;;27.50;11.02;;;6.80;99.90;;;;;;4994306;28;20027;-87
2021/12/29 12:57:02;;;;;;;18.25;7.82;;;6.90;99.90;;;;;;4978305;28;20489;-87
2021/12/29 12:59:39;;;;;;;16.02;7.15;;;6.90;99.90;;;;;;4961836;28;20120;-86
2021/12/29 13:02:15;;;;;;;12.05;6.65;;;6.90;99.90;;;;;;4978202;28;20045;-87
2021/12/29 13:05:09;;;;;;;16.38;6.30;;;6.90;99.90;;;;;;4977372;28;20796;-87
2021/12/29 13:07:37;;;;;;;27.00;12.75;;;6.90;99.90;;;;;;4977204;28;20394;-87